Time;durP1;ratioP1;P1;durP2;ratioP2;P2;SDS_P1;SDS_P2;PMS_P1;PMS_P2;Temp;Humidity;BMP_temperature;BMP_pressure;BME280_temperature;BME280_humidity;BME280_pressure;Samples;Min_cycle;Max_cycle;Signal;HPM_P1;HPM_P2
2021/03/04 08:33:38;;;;;;;34.33;20.02;;;17.20;99.90;;;;;;5086495;28;20383;-66
2021/03/04 08:36:04;;;;;;;36.85;21.20;;;17.40;99.90;;;;;;5086460;28;20082;-70
2021/03/04 08:38:41;;;;;;;40.30;22.17;;;17.50;99.90;;;;;;5075212;28;20032;-68
2021/03/04 08:41:07;;;;;;;34.35;20.92;;;17.70;99.90;;;;;;5072564;28;20445;-66
2021/03/04 08:43:33;;;;;;;28.88;19.58;;;17.80;99.90;;;;;;5084057;28;20021;-67
2021/03/04 08:46:04;;;;;;;32.13;20.23;;;17.90;99.90;;;;;;5082272;28;20383;-68
2021/03/04 08:48:31;;;;;;;28.33;18.58;;;18.00;99.90;;;;;;5085652;28;20036;-69
2021/03/04 08:51:03;;;;;;;27.25;18.88;;;18.10;99.90;;;;;;5085945;28;20016;-71
2021/03/04 08:53:33;;;;;;;26.08;17.83;;;18.30;99.90;;;;;;5083629;28;20077;-67
2021/03/04 08:56:04;;;;;;;26.58;17.42;;;18.40;99.90;;;;;;5084826;28;20038;-72
2021/03/04 08:58:31;;;;;;;28.00;17.75;;;18.50;99.90;;;;;;5087892;28;20071;-70
2021/03/04 09:01:03;;;;;;;26.88;17.23;;;18.60;99.90;;;;;;5076518;28;20028;-68
2021/03/04 09:03:33;;;;;;;24.77;15.65;;;18.70;99.90;;;;;;5067852;28;20028;-69
2021/03/04 09:06:15;;;;;;;23.05;15.45;;;18.80;99.90;;;;;;5087164;28;20021;-68
2021/03/04 09:08:49;;;;;;;22.33;14.88;;;18.90;99.90;;;;;;5088411;28;20020;-70
2021/03/04 09:11:30;;;;;;;22.75;14.93;;;19.00;99.90;;;;;;5088030;28;20030;-75
2021/03/04 09:14:07;;;;;;;21.33;14.57;;;19.00;99.90;;;;;;5087878;28;20510;-67
2021/03/04 09:16:48;;;;;;;21.65;14.50;;;19.10;99.90;;;;;;5090204;28;20028;-76
2021/03/04 09:19:26;;;;;;;19.88;12.77;;;19.20;99.90;;;;;;5069805;28;20021;-76
2021/03/04 09:21:52;;;;;;;21.00;13.07;;;19.30;99.90;;;;;;5087239;28;20025;-70
2021/03/04 09:24:18;;;;;;;21.40;13.25;;;19.40;99.90;;;;;;5087147;28;20130;-71
2021/03/04 09:26:44;;;;;;;21.02;13.75;;;19.40;99.90;;;;;;5087904;28;20472;-67
2021/03/04 09:29:10;;;;;;;15.05;11.77;;;19.50;99.90;;;;;;5088148;28;20033;-64
2021/03/04 09:31:36;;;;;;;17.85;11.55;;;19.50;99.90;;;;;;5086683;28;20098;-65
2021/03/04 09:34:03;;;;;;;17.55;12.13;;;19.50;99.90;;;;;;5086976;28;20472;-66
2021/03/04 09:36:30;;;;;;;16.58;10.70;;;19.60;99.90;;;;;;5087363;28;20036;-71
2021/03/04 09:38:57;;;;;;;15.05;10.52;;;19.60;99.90;;;;;;5087440;28;20077;-71
2021/03/04 09:41:24;;;;;;;14.63;10.98;;;19.60;99.90;;;;;;5087539;28;20029;-67
2021/03/04 09:43:52;;;;;;;16.77;10.52;;;19.60;99.90;;;;;;5080703;28;20032;-69
2021/03/04 09:46:32;;;;;;;13.75;10.13;;;19.70;99.90;;;;;;5073917;28;20055;-70
2021/03/04 09:49:32;;;;;;;13.90;9.23;;;19.80;99.90;;;;;;5074129;28;20028;-66
2021/03/04 09:51:58;;;;;;;13.82;9.45;;;19.80;99.90;;;;;;5074036;28;20024;-65
2021/03/04 09:54:25;;;;;;;12.60;8.15;;;19.90;99.90;;;;;;5073779;28;20059;-69
2021/03/04 09:57:05;;;;;;;11.88;8.50;;;19.90;99.90;;;;;;5073628;28;20421;-68
2021/03/04 09:59:31;;;;;;;12.13;7.90;;;20.00;99.90;;;;;;5073199;28;20123;-67
2021/03/04 10:01:57;;;;;;;11.50;8.30;;;20.00;99.90;;;;;;5073809;28;20115;-66
2021/03/04 10:04:26;;;;;;;12.55;8.02;;;20.10;99.90;;;;;;5073571;28;20020;-71
2021/03/04 10:06:52;;;;;;;12.20;7.30;;;20.10;99.90;;;;;;5073335;28;20471;-71
2021/03/04 10:09:25;;;;;;;15.55;7.97;;;20.10;99.90;;;;;;5073531;28;20040;-71
2021/03/04 10:11:51;;;;;;;11.48;7.57;;;20.20;99.90;;;;;;5073749;28;20093;-71
2021/03/04 10:14:17;;;;;;;11.52;7.63;;;20.20;99.90;;;;;;5073429;28;20079;-71
2021/03/04 10:16:53;;;;;;;9.02;6.32;;;20.30;99.90;;;;;;5072489;28;20107;-70
2021/03/04 10:19:18;;;;;;;12.50;6.28;;;20.30;99.90;;;;;;5072522;28;20050;-64
2021/03/04 10:21:45;;;;;;;8.45;6.25;;;20.30;99.90;;;;;;5072932;28;20480;-65
2021/03/04 10:24:10;;;;;;;8.90;6.30;;;20.40;99.90;;;;;;5072896;28;20031;-65
2021/03/04 10:26:36;;;;;;;8.48;6.28;;;20.40;99.90;;;;;;5071258;28;20020;-69
2021/03/04 10:29:01;;;;;;;9.73;6.53;;;20.50;99.90;;;;;;5070670;28;20025;-69
2021/03/04 10:31:27;;;;;;;10.20;6.20;;;20.60;99.90;;;;;;5072668;28;20108;-67
2021/03/04 10:33:53;;;;;;;11.07;6.90;;;20.70;99.90;;;;;;5073059;28;20513;-68
2021/03/04 10:36:18;;;;;;;9.20;6.28;;;20.80;99.90;;;;;;5072141;28;20020;-70
2021/03/04 10:38:44;;;;;;;14.60;7.35;;;20.80;99.90;;;;;;5072357;28;20427;-63
2021/03/04 10:41:10;;;;;;;13.45;7.70;;;20.80;99.90;;;;;;5063267;28;20029;-66
2021/03/04 10:43:35;;;;;;;14.15;7.65;;;20.80;99.90;;;;;;5063690;28;20086;-67
2021/03/04 10:46:01;;;;;;;14.00;7.60;;;20.90;99.90;;;;;;5071931;28;20020;-70
2021/03/04 10:48:27;;;;;;;15.70;7.50;;;20.80;99.90;;;;;;5068283;28;20032;-69
2021/03/04 10:50:52;;;;;;;15.23;8.15;;;20.80;99.90;;;;;;5070823;28;20078;-63
2021/03/04 10:53:18;;;;;;;17.20;7.65;;;20.80;99.90;;;;;;5071026;28;20060;-64
2021/03/04 10:55:44;;;;;;;14.35;7.72;;;20.70;99.90;;;;;;5069936;28;20103;-68
2021/03/04 10:58:09;;;;;;;17.13;7.43;;;20.60;99.90;;;;;;5072244;28;20039;-67
2021/03/04 11:00:35;;;;;;;21.58;7.70;;;20.60;99.90;;;;;;5070329;28;20115;-69
2021/03/04 11:03:01;;;;;;;15.35;7.55;;;20.70;99.90;;;;;;5070138;28;20547;-67
2021/03/04 11:05:26;;;;;;;17.42;7.15;;;20.70;99.90;;;;;;5070500;28;20103;-65
2021/03/04 11:07:52;;;;;;;13.88;6.93;;;20.60;99.90;;;;;;5071490;28;20385;-65
2021/03/04 11:10:18;;;;;;;12.60;6.97;;;20.60;99.90;;;;;;5072331;28;20017;-65
2021/03/04 11:12:43;;;;;;;12.35;6.63;;;20.60;99.90;;;;;;5072431;28;20430;-65
2021/03/04 11:15:09;;;;;;;11.95;6.78;;;20.60;99.90;;;;;;5072738;28;20456;-65
2021/03/04 11:17:35;;;;;;;14.48;6.90;;;20.50;99.90;;;;;;5072644;28;20029;-65
2021/03/04 11:20:01;;;;;;;15.88;7.10;;;20.50;99.90;;;;;;5072387;28;20031;-65
2021/03/04 11:22:26;;;;;;;12.70;6.93;;;20.50;99.90;;;;;;5071418;28;20112;-65
2021/03/04 11:24:52;;;;;;;11.82;6.38;;;20.40;99.90;;;;;;5072442;28;20095;-65
2021/03/04 11:27:18;;;;;;;13.10;6.30;;;20.40;99.90;;;;;;5071949;28;20036;-65
2021/03/04 11:29:46;;;;;;;10.32;6.18;;;20.30;99.90;;;;;;5071913;28;20024;-65
2021/03/04 11:32:11;;;;;;;14.32;6.47;;;20.30;99.90;;;;;;5071750;28;20484;-65
2021/03/04 11:34:37;;;;;;;10.05;6.28;;;20.20;99.90;;;;;;5072313;28;20034;-65
2021/03/04 11:37:03;;;;;;;11.43;5.88;;;20.20;99.90;;;;;;5072093;28;20107;-65
2021/03/04 11:39:29;;;;;;;17.85;6.68;;;20.20;99.90;;;;;;5070770;28;20111;-65
2021/03/04 11:41:54;;;;;;;8.48;5.32;;;20.10;99.90;;;;;;5071235;28;20021;-68
2021/03/04 11:44:20;;;;;;;10.77;5.47;;;20.10;99.90;;;;;;5071191;28;20465;-67
2021/03/04 11:46:46;;;;;;;10.25;5.50;;;20.00;99.90;;;;;;5071520;28;20056;-67
2021/03/04 11:49:11;;;;;;;9.40;5.20;;;20.00;99.90;;;;;;5071773;28;20418;-66
2021/03/04 11:51:37;;;;;;;10.40;5.50;;;19.90;99.90;;;;;;5071766;28;20071;-65
2021/03/04 11:54:03;;;;;;;9.48;5.05;;;19.80;99.90;;;;;;5071694;28;20020;-64
2021/03/04 11:56:31;;;;;;;8.55;5.18;;;19.80;99.90;;;;;;5071632;28;20062;-64
2021/03/04 11:58:57;;;;;;;11.30;5.30;;;19.80;99.90;;;;;;5071738;28;20024;-63
2021/03/04 12:01:22;;;;;;;9.25;5.20;;;19.70;99.90;;;;;;5070678;28;20590;-63
2021/03/04 12:03:48;;;;;;;9.52;5.30;;;19.60;99.90;;;;;;5070785;28;20112;-66
2021/03/04 12:06:13;;;;;;;11.43;5.95;;;19.60;99.90;;;;;;5070483;28;20060;-64
2021/03/04 12:08:39;;;;;;;9.77;5.47;;;19.50;99.90;;;;;;5071496;28;20035;-63
2021/03/04 12:11:05;;;;;;;8.15;5.20;;;19.50;99.90;;;;;;5070975;28;20032;-63
2021/03/04 12:13:31;;;;;;;9.55;5.57;;;19.50;99.90;;;;;;5071019;28;20028;-64
2021/03/04 12:15:58;;;;;;;10.68;5.60;;;19.40;99.90;;;;;;5067801;28;20032;-73
2021/03/04 12:18:24;;;;;;;8.40;5.38;;;19.40;99.90;;;;;;5069375;28;20105;-68
2021/03/04 12:20:51;;;;;;;9.73;5.68;;;19.40;99.90;;;;;;5069929;28;20079;-69
2021/03/04 12:23:17;;;;;;;7.25;5.10;;;19.30;99.90;;;;;;5070472;28;20048;-68
2021/03/04 12:25:42;;;;;;;10.02;5.63;;;19.30;99.90;;;;;;5071127;28;20016;-67
2021/03/04 12:28:08;;;;;;;10.10;5.57;;;19.20;99.90;;;;;;5071076;28;20098;-68
2021/03/04 12:30:34;;;;;;;8.27;5.50;;;19.20;99.90;;;;;;5070383;28;20024;-68
2021/03/04 12:32:59;;;;;;;10.30;5.80;;;19.10;99.90;;;;;;5070112;28;20103;-67
2021/03/04 12:35:25;;;;;;;10.57;5.47;;;19.00;99.90;;;;;;5070525;28;20020;-68
2021/03/04 12:37:51;;;;;;;8.90;5.85;;;19.00;99.90;;;;;;5071350;28;20063;-68
2021/03/04 12:40:17;;;;;;;8.80;5.95;;;18.90;99.90;;;;;;5070872;28;20021;-68
2021/03/04 12:42:43;;;;;;;10.02;5.93;;;18.90;99.90;;;;;;5071410;28;20480;-68
2021/03/04 12:45:09;;;;;;;8.88;5.65;;;18.90;99.90;;;;;;5071466;28;20405;-67
2021/03/04 12:47:35;;;;;;;8.45;5.93;;;18.80;99.90;;;;;;5071534;28;20035;-68
2021/03/04 12:50:02;;;;;;;9.82;5.53;;;18.80;99.90;;;;;;5071154;28;20099;-68
2021/03/04 12:52:29;;;;;;;9.75;5.97;;;18.80;99.90;;;;;;5069912;28;20040;-68
2021/03/04 12:54:55;;;;;;;9.13;5.78;;;18.70;99.90;;;;;;5071059;28;20050;-68
2021/03/04 12:57:21;;;;;;;7.47;5.85;;;18.70;99.90;;;;;;5070908;28;20050;-68
2021/03/04 12:59:46;;;;;;;7.57;5.25;;;18.70;99.90;;;;;;5071197;28;20020;-68
2021/03/04 13:02:12;;;;;;;9.40;6.25;;;18.70;99.90;;;;;;5070389;28;20044;-68
2021/03/04 13:04:38;;;;;;;7.75;5.70;;;18.70;99.90;;;;;;5071092;28;20029;-68
2021/03/04 13:07:03;;;;;;;8.63;5.80;;;18.60;99.90;;;;;;5070967;28;20028;-68
2021/03/04 13:09:29;;;;;;;8.75;5.32;;;18.60;99.90;;;;;;5070236;28;20801;-68
2021/03/04 13:11:55;;;;;;;9.35;5.90;;;18.60;99.90;;;;;;5071122;28;20117;-67
2021/03/04 13:14:21;;;;;;;8.13;5.85;;;18.60;99.90;;;;;;5070717;28;20090;-68
2021/03/04 13:16:46;;;;;;;8.52;5.82;;;18.50;99.90;;;;;;5070788;28;20021;-68
2021/03/04 13:19:12;;;;;;;8.40;6.13;;;18.50;99.90;;;;;;5072364;28;20020;-67
2021/03/04 13:21:38;;;;;;;11.55;6.07;;;18.50;99.90;;;;;;5074579;28;20086;-67
2021/03/04 13:24:04;;;;;;;9.10;6.15;;;18.40;99.90;;;;;;5073128;28;20036;-67
2021/03/04 13:26:30;;;;;;;8.95;6.18;;;18.40;99.90;;;;;;5074014;28;20098;-68
2021/03/04 13:28:55;;;;;;;9.13;6.10;;;18.40;99.90;;;;;;5074508;28;20033;-68
2021/03/04 13:31:21;;;;;;;10.05;6.40;;;18.40;99.90;;;;;;5074009;28;20020;-67
2021/03/04 13:33:47;;;;;;;9.00;6.05;;;18.40;99.90;;;;;;5072848;28;20086;-67
2021/03/04 13:36:12;;;;;;;10.40;6.55;;;18.50;99.90;;;;;;5073995;28;20495;-68
2021/03/04 13:38:38;;;;;;;8.18;6.22;;;18.40;99.90;;;;;;5072766;28;20093;-67
2021/03/04 13:41:04;;;;;;;9.25;6.15;;;18.40;99.90;;;;;;5074493;28;20020;-68
2021/03/04 13:43:30;;;;;;;9.23;6.05;;;18.40;99.90;;;;;;5073990;28;20752;-68
2021/03/04 13:45:56;;;;;;;9.90;6.40;;;18.40;99.90;;;;;;5073614;28;20028;-66
2021/03/04 13:48:22;;;;;;;8.23;6.07;;;18.30;99.90;;;;;;5072817;28;20048;-67
2021/03/04 13:50:48;;;;;;;9.15;6.60;;;18.30;99.90;;;;;;5073653;28;20087;-69
2021/03/04 13:53:14;;;;;;;8.88;5.97;;;18.30;99.90;;;;;;5073625;28;20017;-68
2021/03/04 13:55:40;;;;;;;7.40;5.78;;;18.30;99.90;;;;;;5074115;28;20032;-68
2021/03/04 13:58:06;;;;;;;8.40;6.30;;;18.30;99.90;;;;;;5074262;28;20127;-68
2021/03/04 14:00:33;;;;;;;8.73;6.22;;;18.20;99.90;;;;;;5073602;28;20515;-69
2021/03/04 14:02:59;;;;;;;7.95;6.38;;;18.20;99.90;;;;;;5073787;28;20036;-69
2021/03/04 14:05:24;;;;;;;8.20;6.10;;;18.20;99.90;;;;;;5073304;28;20078;-67
2021/03/04 14:07:50;;;;;;;8.75;6.78;;;18.20;99.90;;;;;;5073264;28;20025;-69
2021/03/04 14:10:16;;;;;;;9.50;7.40;;;18.20;99.90;;;;;;5073064;28;20021;-69
2021/03/04 14:12:42;;;;;;;10.10;6.82;;;18.20;99.90;;;;;;5072137;28;20052;-69
2021/03/04 14:15:10;;;;;;;10.35;7.85;;;18.10;99.90;;;;;;5072667;28;20032;-67
2021/03/04 14:17:36;;;;;;;9.45;7.53;;;18.10;99.90;;;;;;5073744;28;20028;-69
2021/03/04 14:20:03;;;;;;;10.95;7.63;;;18.10;99.90;;;;;;5073445;28;20099;-68
2021/03/04 14:22:28;;;;;;;11.65;8.32;;;18.10;99.90;;;;;;5087010;28;20135;-68
2021/03/04 14:24:54;;;;;;;12.32;9.30;;;18.10;99.90;;;;;;5083601;28;20542;-68
2021/03/04 14:27:20;;;;;;;12.75;8.82;;;18.00;99.90;;;;;;5073168;28;20120;-68
2021/03/04 14:29:45;;;;;;;12.15;9.20;;;18.00;99.90;;;;;;5073208;28;20099;-69
2021/03/04 14:32:11;;;;;;;13.30;9.57;;;18.00;99.90;;;;;;5080943;28;20024;-66
2021/03/04 14:34:37;;;;;;;12.00;9.30;;;18.00;99.90;;;;;;5093139;28;20371;-67
2021/03/04 14:37:02;;;;;;;13.20;9.18;;;18.00;99.90;;;;;;5072893;28;20016;-64
2021/03/04 14:39:28;;;;;;;18.77;9.45;;;18.10;99.90;;;;;;5072631;28;20021;-64
2021/03/04 14:41:54;;;;;;;16.67;9.60;;;18.10;99.90;;;;;;5068325;28;20383;-65
2021/03/04 14:44:19;;;;;;;17.85;10.02;;;18.20;99.90;;;;;;5080795;28;20028;-65
2021/03/04 14:46:45;;;;;;;12.85;9.77;;;18.20;99.90;;;;;;5093270;28;20468;-68
2021/03/04 14:49:11;;;;;;;16.45;9.30;;;18.20;99.90;;;;;;5075457;28;20032;-65
2021/03/04 14:51:36;;;;;;;13.77;9.63;;;18.20;99.90;;;;;;5072901;28;20056;-68
2021/03/04 14:54:02;;;;;;;19.83;9.90;;;18.20;99.90;;;;;;5072387;28;20082;-67
2021/03/04 14:56:28;;;;;;;13.10;9.48;;;18.10;99.90;;;;;;5071975;28;20051;-68
2021/03/04 14:58:53;;;;;;;16.30;10.27;;;18.10;99.90;;;;;;5073425;28;20024;-68
2021/03/04 15:01:19;;;;;;;13.90;10.15;;;18.10;99.90;;;;;;5075093;28;20089;-68
2021/03/04 15:03:44;;;;;;;14.82;9.52;;;18.10;99.90;;;;;;5071985;28;20045;-68
2021/03/04 15:06:15;;;;;;;13.85;9.30;;;18.10;99.90;;;;;;5072339;28;20016;-68
2021/03/04 15:08:41;;;;;;;14.55;9.65;;;18.10;99.90;;;;;;5072608;28;20017;-68
2021/03/04 15:11:07;;;;;;;12.68;9.27;;;18.10;99.90;;;;;;5072812;28;20036;-68
2021/03/04 15:13:33;;;;;;;14.20;9.73;;;18.10;99.90;;;;;;5072110;28;20025;-69
2021/03/04 15:15:59;;;;;;;12.20;9.32;;;18.10;99.90;;;;;;5072435;28;20890;-70
2021/03/04 15:18:25;;;;;;;13.73;9.07;;;18.10;99.90;;;;;;5072040;28;20099;-64
2021/03/04 15:20:51;;;;;;;14.63;9.38;;;18.10;99.90;;;;;;5071933;28;20039;-65
2021/03/04 15:23:16;;;;;;;12.20;9.07;;;18.10;99.90;;;;;;5071505;28;20045;-63
2021/03/04 15:25:42;;;;;;;12.02;8.75;;;18.10;99.90;;;;;;5071934;28;20193;-65
2021/03/04 15:28:08;;;;;;;12.27;8.85;;;18.10;99.90;;;;;;5072593;28;20468;-65
2021/03/04 15:30:34;;;;;;;12.63;9.05;;;18.10;99.90;;;;;;5071676;28;20035;-64
2021/03/04 15:32:59;;;;;;;13.13;8.77;;;18.10;99.90;;;;;;5071892;28;20036;-65
2021/03/04 15:35:25;;;;;;;11.40;8.13;;;18.10;99.90;;;;;;5070950;28;20384;-68
2021/03/04 15:37:51;;;;;;;17.10;8.70;;;18.10;99.90;;;;;;5072031;28;20051;-64
2021/03/04 15:40:17;;;;;;;15.80;8.20;;;18.10;99.90;;;;;;5071789;28;20017;-68
2021/03/04 15:42:42;;;;;;;11.23;7.65;;;18.10;99.90;;;;;;5071359;28;20496;-64
2021/03/04 15:45:09;;;;;;;9.35;6.82;;;18.10;99.90;;;;;;5072042;28;20017;-65
2021/03/04 15:47:35;;;;;;;13.32;7.38;;;18.10;99.90;;;;;;5071840;28;20099;-64
2021/03/04 15:50:01;;;;;;;12.98;7.20;;;18.10;99.90;;;;;;5071035;28;20038;-66
2021/03/04 15:52:26;;;;;;;12.25;6.40;;;18.10;99.90;;;;;;5070894;28;20032;-66
2021/03/04 15:54:52;;;;;;;14.63;6.95;;;18.20;99.90;;;;;;5071086;28;20100;-61
2021/03/04 15:57:18;;;;;;;11.38;6.18;;;18.20;99.90;;;;;;5071068;28;20116;-62
2021/03/04 15:59:43;;;;;;;13.20;7.07;;;18.10;99.90;;;;;;5071646;28;20020;-65
2021/03/04 16:02:09;;;;;;;13.77;6.90;;;18.20;99.90;;;;;;5071004;28;20048;-63
2021/03/04 16:04:35;;;;;;;10.07;6.13;;;18.10;99.90;;;;;;5071809;28;20066;-74
2021/03/04 16:07:00;;;;;;;10.82;6.38;;;18.10;99.90;;;;;;5071337;28;20388;-72
2021/03/04 16:09:26;;;;;;;9.88;6.55;;;18.20;99.90;;;;;;5070118;28;20161;-75
2021/03/04 16:11:52;;;;;;;13.52;6.80;;;18.20;99.90;;;;;;5070563;28;20031;-73
2021/03/04 16:14:19;;;;;;;8.80;5.70;;;18.20;99.90;;;;;;5071423;28;20024;-73
2021/03/04 16:16:45;;;;;;;9.98;5.32;;;18.20;99.90;;;;;;5070967;28;20020;-77
2021/03/04 16:19:10;;;;;;;9.70;5.25;;;18.20;99.90;;;;;;5070654;28;20028;-70
2021/03/04 16:21:36;;;;;;;8.40;5.50;;;18.20;99.90;;;;;;5069706;28;20032;-68
2021/03/04 16:24:02;;;;;;;14.85;5.47;;;18.20;99.90;;;;;;5071162;28;20047;-72
2021/03/04 16:26:28;;;;;;;8.45;5.47;;;18.20;99.90;;;;;;5070796;28;20384;-70
2021/03/04 16:28:54;;;;;;;8.60;5.40;;;18.20;99.90;;;;;;5071404;28;20023;-76
2021/03/04 16:31:20;;;;;;;10.32;4.70;;;18.20;99.90;;;;;;5070414;28;20081;-72
2021/03/04 16:33:46;;;;;;;12.25;5.07;;;18.20;99.90;;;;;;5065962;28;20021;-71
2021/03/04 16:36:12;;;;;;;10.70;4.95;;;18.30;99.90;;;;;;5057259;28;20365;-69
2021/03/04 16:38:38;;;;;;;13.68;4.85;;;18.40;99.90;;;;;;5069493;28;20036;-67
2021/03/04 16:41:03;;;;;;;13.32;5.10;;;18.40;99.90;;;;;;5069114;28;20074;-70
2021/03/04 16:43:29;;;;;;;13.75;4.35;;;18.40;99.90;;;;;;5070346;28;20094;-66
2021/03/04 16:45:55;;;;;;;9.63;4.05;;;18.50;99.90;;;;;;5070202;28;20031;-68
2021/03/04 16:48:20;;;;;;;12.73;4.60;;;18.50;99.90;;;;;;5069882;28;20459;-70
2021/03/04 16:50:50;;;;;;;10.68;4.10;;;18.60;99.90;;;;;;5069654;28;20025;-68
2021/03/04 16:53:17;;;;;;;14.30;4.15;;;18.60;99.90;;;;;;5069454;28;20143;-72
2021/03/04 16:55:43;;;;;;;14.60;4.22;;;18.60;99.90;;;;;;5074015;28;20028;-72
2021/03/04 16:58:08;;;;;;;11.32;4.57;;;18.60;99.90;;;;;;5073243;28;20029;-66
2021/03/04 17:00:34;;;;;;;7.45;3.97;;;18.60;99.90;;;;;;5071538;28;20036;-69
2021/03/04 17:03:00;;;;;;;13.68;4.38;;;18.60;99.90;;;;;;5073603;28;20051;-67
2021/03/04 17:05:26;;;;;;;9.95;3.88;;;18.70;99.90;;;;;;5073857;28;20025;-67
2021/03/04 17:07:52;;;;;;;10.55;4.05;;;18.60;99.90;;;;;;5072806;28;20020;-69
2021/03/04 17:10:22;;;;;;;7.45;4.10;;;18.60;99.90;;;;;;5073749;28;20035;-67
2021/03/04 17:12:48;;;;;;;7.55;3.70;;;18.60;99.90;;;;;;5073337;28;20033;-68
2021/03/04 17:15:14;;;;;;;9.13;3.20;;;18.60;99.90;;;;;;5073546;28;20024;-68
2021/03/04 17:17:40;;;;;;;6.55;3.80;;;18.60;99.90;;;;;;5073832;28;20025;-65
2021/03/04 17:20:06;;;;;;;5.25;3.65;;;18.60;99.90;;;;;;5072259;28;20266;-67
2021/03/04 17:22:32;;;;;;;10.63;3.50;;;18.60;99.90;;;;;;5072357;28;20035;-65
2021/03/04 17:24:58;;;;;;;5.45;3.20;;;18.60;99.90;;;;;;5073311;28;20533;-67
2021/03/04 17:27:24;;;;;;;7.00;3.60;;;18.60;99.90;;;;;;5072858;28;20021;-66
2021/03/04 17:29:50;;;;;;;8.52;3.00;;;18.60;99.90;;;;;;5072941;28;20036;-68
2021/03/04 17:32:16;;;;;;;5.68;3.00;;;18.60;99.90;;;;;;5068925;28;20033;-67
2021/03/04 17:34:42;;;;;;;5.20;2.75;;;18.60;99.90;;;;;;5072116;28;20037;-70
2021/03/04 17:37:07;;;;;;;5.65;2.90;;;18.60;99.90;;;;;;5073620;28;20426;-66
2021/03/04 17:39:33;;;;;;;7.88;3.10;;;18.60;99.90;;;;;;5073529;28;20054;-65
2021/03/04 17:41:59;;;;;;;4.47;3.03;;;18.60;99.90;;;;;;5073042;28;20032;-66
2021/03/04 17:44:24;;;;;;;5.03;2.90;;;18.60;99.90;;;;;;5072900;28;20036;-64
2021/03/04 17:46:50;;;;;;;5.80;2.70;;;18.50;99.90;;;;;;5073327;28;20048;-65
2021/03/04 17:49:16;;;;;;;5.80;2.83;;;18.60;99.90;;;;;;5072785;28;20032;-64
2021/03/04 17:51:41;;;;;;;4.40;3.00;;;18.70;99.90;;;;;;5072711;28;20024;-64
2021/03/04 17:54:07;;;;;;;3.63;2.35;;;18.80;99.90;;;;;;5073516;28;20472;-64
2021/03/04 17:56:33;;;;;;;4.35;2.38;;;18.90;99.90;;;;;;5072707;28;20024;-65
2021/03/04 17:59:00;;;;;;;4.13;2.17;;;18.90;99.90;;;;;;5073009;28;20503;-65
2021/03/04 18:01:27;;;;;;;5.15;2.28;;;18.90;99.90;;;;;;5072021;28;20523;-65
2021/03/04 18:03:52;;;;;;;3.03;2.10;;;18.90;99.90;;;;;;5072592;28;20035;-65
2021/03/04 18:06:19;;;;;;;3.03;1.90;;;18.90;99.90;;;;;;5072439;28;20104;-65
2021/03/04 18:08:45;;;;;;;5.05;2.30;;;18.90;99.90;;;;;;5072601;28;20124;-65
2021/03/04 18:11:11;;;;;;;2.88;2.15;;;18.80;99.90;;;;;;5071948;28;20024;-65
2021/03/04 18:13:37;;;;;;;4.30;1.90;;;18.80;99.90;;;;;;5072669;28;20021;-65
2021/03/04 18:16:04;;;;;;;2.50;2.25;;;18.80;99.90;;;;;;5072651;28;20021;-65
2021/03/04 18:18:30;;;;;;;6.18;2.20;;;18.70;99.90;;;;;;5072586;28;20643;-65
2021/03/04 18:20:55;;;;;;;4.28;2.15;;;18.70;99.90;;;;;;5072089;28;20119;-65
2021/03/04 18:23:21;;;;;;;3.45;2.03;;;18.70;99.90;;;;;;5072367;28;20066;-65
2021/03/04 18:25:47;;;;;;;3.95;1.92;;;18.70;99.90;;;;;;5064337;28;20063;-65
2021/03/04 18:28:13;;;;;;;4.90;1.90;;;18.70;99.90;;;;;;5072275;28;20089;-65
2021/03/04 18:30:38;;;;;;;3.65;1.77;;;18.70;99.90;;;;;;5072080;28;20024;-65
2021/03/04 18:33:04;;;;;;;3.70;1.83;;;18.70;99.90;;;;;;5071874;28;20430;-65
2021/03/04 18:35:30;;;;;;;6.15;2.20;;;18.60;99.90;;;;;;5071912;28;20043;-65
2021/03/04 18:37:55;;;;;;;3.42;1.73;;;18.60;99.90;;;;;;5072493;28;20032;-65
2021/03/04 18:40:21;;;;;;;5.50;2.50;;;18.60;99.90;;;;;;5071815;28;20078;-65
2021/03/04 18:42:47;;;;;;;4.53;2.15;;;18.50;99.90;;;;;;5071642;28;20048;-65
2021/03/04 18:45:13;;;;;;;5.32;2.40;;;18.50;99.90;;;;;;5072123;28;20020;-65
2021/03/04 18:47:44;;;;;;;3.28;2.35;;;18.50;99.90;;;;;;5072472;28;20032;-65
2021/03/04 18:50:10;;;;;;;6.32;2.38;;;18.50;99.90;;;;;;5072734;28;20024;-65
2021/03/04 18:52:37;;;;;;;6.60;2.38;;;18.40;99.90;;;;;;5072297;28;20056;-65
2021/03/04 18:55:04;;;;;;;5.30;2.25;;;18.40;99.90;;;;;;5072063;28;20056;-64
2021/03/04 18:57:29;;;;;;;6.07;2.20;;;18.40;99.90;;;;;;5071926;28;20193;-65
2021/03/04 18:59:55;;;;;;;3.47;2.28;;;18.40;99.90;;;;;;5071674;28;20017;-65
2021/03/04 19:02:20;;;;;;;3.70;2.28;;;18.40;99.90;;;;;;5069492;28;20123;-65
2021/03/04 19:04:46;;;;;;;8.48;2.50;;;18.40;99.90;;;;;;5071542;28;20027;-65
2021/03/04 19:07:12;;;;;;;6.43;2.08;;;18.40;99.90;;;;;;5070895;28;20037;-74
2021/03/04 19:09:37;;;;;;;5.68;2.03;;;18.50;99.90;;;;;;5071887;28;20031;-73
2021/03/04 19:12:03;;;;;;;3.50;2.20;;;18.60;99.90;;;;;;5070591;28;20063;-66
2021/03/04 19:14:29;;;;;;;6.03;2.45;;;18.60;99.90;;;;;;5071706;28;20035;-66
2021/03/04 19:16:54;;;;;;;6.22;2.20;;;18.80;99.90;;;;;;5070607;28;20024;-66
2021/03/04 19:19:20;;;;;;;3.72;1.77;;;19.00;99.90;;;;;;5071227;28;20078;-64
2021/03/04 19:21:47;;;;;;;4.03;1.80;;;19.20;99.90;;;;;;5071258;28;20047;-64
2021/03/04 19:24:13;;;;;;;6.15;1.77;;;19.30;99.90;;;;;;5070729;28;20032;-65
2021/03/04 19:26:39;;;;;;;4.65;1.75;;;19.50;99.90;;;;;;5071546;28;20021;-69
2021/03/04 19:29:05;;;;;;;4.70;1.65;;;19.60;99.90;;;;;;5071664;28;20028;-66
2021/03/04 19:31:30;;;;;;;3.78;1.40;;;19.70;99.90;;;;;;5070776;28;20056;-61
2021/03/04 19:33:56;;;;;;;6.95;1.30;;;19.80;99.90;;;;;;5071765;28;20051;-66
2021/03/04 19:36:22;;;;;;;2.50;1.35;;;19.80;99.90;;;;;;5070620;28;20043;-65
2021/03/04 19:38:47;;;;;;;3.33;1.40;;;19.90;99.90;;;;;;5070926;28;20104;-62
2021/03/04 19:41:13;;;;;;;5.25;1.45;;;19.90;99.90;;;;;;5070396;28;20059;-61
2021/03/04 19:43:38;;;;;;;2.50;1.48;;;20.00;99.90;;;;;;5070157;28;20086;-60
2021/03/04 19:46:04;;;;;;;3.17;1.50;;;20.00;99.90;;;;;;5069804;28;20021;-64
2021/03/04 19:48:29;;;;;;;4.00;1.40;;;20.10;99.90;;;;;;5068416;28;20523;-62
2021/03/04 19:50:55;;;;;;;2.50;1.40;;;20.20;99.90;;;;;;5070968;28;20027;-64
2021/03/04 19:53:21;;;;;;;3.90;1.30;;;20.20;99.90;;;;;;5070241;28;20111;-63
2021/03/04 19:55:46;;;;;;;2.28;1.30;;;20.30;99.90;;;;;;5071843;28;20422;-62
2021/03/04 19:58:12;;;;;;;2.72;1.25;;;20.40;99.90;;;;;;5070473;28;20478;-62
2021/03/04 20:00:38;;;;;;;2.85;1.30;;;20.50;99.90;;;;;;5071089;28;20373;-61
2021/03/04 20:03:04;;;;;;;2.25;1.40;;;20.50;99.90;;;;;;5070699;28;20484;-62
2021/03/04 20:05:29;;;;;;;2.63;1.33;;;20.60;99.90;;;;;;5071650;28;20039;-61
2021/03/04 20:07:55;;;;;;;3.58;1.40;;;20.70;99.90;;;;;;5070814;28;20109;-61
2021/03/04 20:10:21;;;;;;;3.20;1.20;;;20.70;99.90;;;;;;5070351;28;20031;-62
2021/03/04 20:12:46;;;;;;;3.03;1.25;;;20.80;99.90;;;;;;5070533;28;20112;-64
2021/03/04 20:15:14;;;;;;;1.73;1.08;;;20.80;99.80;;;;;;5070507;28;20021;-62
2021/03/04 20:17:41;;;;;;;2.95;1.23;;;20.90;99.70;;;;;;5070190;28;20519;-62
2021/03/04 20:20:08;;;;;;;2.47;1.10;;;20.90;99.60;;;;;;5065725;28;20120;-62
2021/03/04 20:22:34;;;;;;;2.65;1.20;;;21.00;99.60;;;;;;5070086;28;20094;-61
2021/03/04 20:25:00;;;;;;;2.60;1.08;;;21.00;99.50;;;;;;5065314;28;20523;-62
2021/03/04 20:27:26;;;;;;;2.35;0.98;;;21.10;99.60;;;;;;5071104;28;20052;-60
2021/03/04 20:29:52;;;;;;;2.08;1.02;;;21.10;99.50;;;;;;5063366;28;20039;-61
2021/03/04 20:32:17;;;;;;;2.55;0.93;;;21.10;99.50;;;;;;5069968;28;20043;-62
2021/03/04 20:34:43;;;;;;;2.25;1.00;;;21.10;99.40;;;;;;5068988;28;20021;-62
2021/03/04 20:37:09;;;;;;;3.70;1.20;;;21.00;99.40;;;;;;5066960;28;20032;-62
2021/03/04 20:39:35;;;;;;;4.28;1.15;;;21.00;99.40;;;;;;5069642;28;20032;-63
2021/03/04 20:42:00;;;;;;;2.80;1.10;;;20.90;99.30;;;;;;5069494;28;20033;-62
2021/03/04 20:44:26;;;;;;;2.17;1.02;;;20.90;99.70;;;;;;5070079;28;20028;-64
2021/03/04 20:46:52;;;;;;;1.80;0.80;;;20.80;99.40;;;;;;5084144;28;20055;-64
2021/03/04 20:49:18;;;;;;;2.20;1.10;;;20.70;99.50;;;;;;5090147;28;20050;-63
2021/03/04 20:51:44;;;;;;;1.58;1.00;;;20.60;99.60;;;;;;5090757;28;20025;-65
2021/03/04 20:54:10;;;;;;;3.95;1.02;;;20.50;99.70;;;;;;5078639;28;20029;-67
2021/03/04 20:56:36;;;;;;;2.22;1.08;;;20.50;99.80;;;;;;5064360;28;20025;-64
2021/03/04 20:59:02;;;;;;;2.58;1.15;;;20.40;99.90;;;;;;5070238;28;20039;-63
2021/03/04 21:01:28;;;;;;;3.47;1.38;;;20.30;99.90;;;;;;5069590;28;20111;-63
2021/03/04 21:03:54;;;;;;;2.10;1.40;;;20.20;99.90;;;;;;5070201;28;20116;-63
2021/03/04 21:06:20;;;;;;;1.60;1.20;;;20.10;99.90;;;;;;5069372;28;20056;-69
2021/03/04 21:08:46;;;;;;;2.88;1.35;;;20.10;99.90;;;;;;5070325;28;20033;-66